Terminal Aerodrome Forecast
Issued by NWS Twin Cities, MN

Home | Current Version | Previous Version | Graphics & Text | Print | Product List | Glossary On
Versions: 1 2 3 4 5 6 7 8 9 10 11 12 13
000
FTUS43 KMPX 160520
TAFEAU
TAF
KEAU 160520Z 1606/1706 14008KT P6SM BKN200
     FM161200 15004KT P6SM SCT060 BKN100
     FM162200 26007KT P6SM BKN060
     FM170200 VRB03KT P6SM SCT050=

USA.gov is the U.S. government's official web portal to all federal, state and local government web resources and services.